San Antonio, Texas
Traffic Map
Current Weather Conditions
San Antonio, Texas
Clear
Clear
63°
Feels Like: 63°
Wind Chill: 63° Ceiling: Unl
Heat Index: 63° Visibility: 10mi
Dew Point: 43° Wind: 7mph
Humidity: 48% Direction: 80° (E)
Pressure: 30.32in Gusts: 0mph
Raw Report DataKSAT 171451Z 08006KT 10SM CLR 17/06 A3032 RMK AO2 SLP254 T01720061 53016 $
Traffic Incident Summary
Active as of:
Severity:
Category:
InformationThere was an issue retrieving the traffic information for this location. Please try a different location or try again shortly.
Advertisements